This is the latest recevied weather packets stored in our database for station/object K9UO. If no packets are shown the sender has not sent any weather packets the latest 10 day(s).
| Time | Temp. | Humidity | Pressure | Rain* | Wind** | Luminosity | Snow |
|---|---|---|---|---|---|---|---|
| 1777666538 | 9.44° C | 55% | 1015.4 hPa | 0 mm | - | - | - |
| 1777665632 | 9.44° C | 54% | 1015.3 hPa | 0 mm | - | - | - |
| 1777664727 | 10° C | 52% | 1015.2 hPa | 0 mm | - | - | - |
| 1777663835 | 10° C | 53% | 1015.2 hPa | 0 mm | - | - | - |
| 1777662918 | 9.44° C | 55% | 1015.3 hPa | 0 mm | - | - | - |
| 1777662020 | 9.44° C | 54% | 1015.2 hPa | 0 mm | - | - | - |
| 1777661109 | 8.89° C | 55% | 1015.2 hPa | 0 mm | - | - | - |
| 1777660207 | 9.44° C | 53% | 1015.2 hPa | 0 mm | - | - | - |
| 1777659364 | 8.89° C | 52% | 1015.1 hPa | 0 mm | - | - | - |
| 1777658459 | 8.33° C | 50% | 1015 hPa | 0 mm | - | - | - |
| 1777657552 | 8.33° C | 45% | 1015 hPa | 0 mm | - | - | - |
| 1777656648 | 8.33° C | 36% | 1014.8 hPa | 0 mm | - | - | - |
| 1777655742 | 7.78° C | 27% | 1014.8 hPa | 0 mm | - | - | - |
| 1777654838 | 6.11° C | 1% | 1014.8 hPa | 0 mm | - | - | - |
| 1777653933 | 5° C | 1% | 1014.7 hPa | 0 mm | - | - | - |
| 1777653035 | 4.44° C | 1% | 1014.5 hPa | 0 mm | - | - | - |
| 1777652126 | 5° C | 1% | 1014.4 hPa | 0 mm | - | - | - |
| 1777651222 | 5.56° C | 1% | 1014.1 hPa | 0 mm | - | - | - |
| 1777650317 | 5° C | 1% | 1014.1 hPa | 0 mm | - | - | - |
| 1777649411 | 5° C | 1% | 1013.9 hPa | 0 mm | - | - | - |
| 1777648507 | 5° C | 1% | 1013.7 hPa | 0 mm | - | - | - |
| 1777647603 | 5° C | 1% | 1013.5 hPa | 0 mm | - | - | - |
| 1777646759 | 5° C | 1% | 1013.2 hPa | 0 mm | - | - | - |
| 1777645866 | 5° C | 1% | 1012.9 hPa | 0 mm | - | - | - |
| 1777644956 | 5° C | 1% | 1012.7 hPa | 0 mm | - | - | - |
* Rain latest hour (hover to see other rain measurements)
** Current wind speed in m/s (hover to see current wind gust speed)